Time;durP1;ratioP1;P1;durP2;ratioP2;P2;SDS_P1;SDS_P2;PMS_P1;PMS_P2;Temp;Humidity;BMP_temperature;BMP_pressure;BME280_temperature;BME280_humidity;BME280_pressure;Samples;Min_cycle;Max_cycle;Signal;HPM_P1;HPM_P2
2021/10/17 00:00:33;;;;;;;16.55;8.18;;;8.70;99.90;;;;;;4974221;28;20038;-48
2021/10/17 00:02:59;;;;;;;11.40;6.82;;;8.70;99.90;;;;;;4975032;28;20027;-50
2021/10/17 00:05:28;;;;;;;13.27;7.47;;;8.60;99.90;;;;;;4975135;28;20019;-53
2021/10/17 00:07:54;;;;;;;12.73;7.10;;;8.50;99.90;;;;;;4974428;28;20068;-54
2021/10/17 00:10:25;;;;;;;14.20;7.22;;;8.50;99.90;;;;;;4974822;28;20058;-52
2021/10/17 00:12:53;;;;;;;16.40;7.38;;;8.50;99.90;;;;;;4975001;28;20031;-49
2021/10/17 00:15:20;;;;;;;12.02;7.68;;;8.50;99.90;;;;;;4974855;28;20019;-50
2021/10/17 00:17:46;;;;;;;13.85;7.97;;;8.50;99.90;;;;;;4974571;28;20023;-51
2021/10/17 00:20:14;;;;;;;11.98;7.40;;;8.60;99.90;;;;;;4974824;28;20299;-50
2021/10/17 00:22:41;;;;;;;11.85;7.25;;;8.70;99.90;;;;;;4974676;28;20062;-51
2021/10/17 00:25:08;;;;;;;13.00;7.32;;;8.70;99.90;;;;;;4974560;28;20065;-49
2021/10/17 00:27:34;;;;;;;15.98;7.30;;;8.70;99.90;;;;;;4973181;28;20431;-52
2021/10/17 00:30:00;;;;;;;17.92;8.20;;;8.70;99.90;;;;;;4973248;28;20031;-49
2021/10/17 00:32:26;;;;;;;20.10;7.40;;;8.70;99.90;;;;;;4974469;28;20507;-54
2021/10/17 00:34:51;;;;;;;12.85;8.32;;;8.70;99.90;;;;;;4974298;28;20034;-51
2021/10/17 00:37:18;;;;;;;13.90;7.78;;;8.70;99.90;;;;;;4974135;28;20033;-50
2021/10/17 00:39:44;;;;;;;14.52;7.70;;;8.60;99.90;;;;;;4974587;28;20033;-51
2021/10/17 00:42:11;;;;;;;13.98;8.70;;;8.60;99.90;;;;;;4974443;28;20027;-51
2021/10/17 00:44:38;;;;;;;12.05;7.90;;;8.60;99.90;;;;;;4974351;28;20062;-48
2021/10/17 00:47:04;;;;;;;16.02;7.65;;;8.50;99.90;;;;;;4974116;28;20395;-48
2021/10/17 00:49:30;;;;;;;16.55;9.13;;;8.50;99.90;;;;;;4974230;28;20396;-52
2021/10/17 00:51:56;;;;;;;15.52;8.65;;;8.40;99.90;;;;;;4974310;28;20065;-52
2021/10/17 00:54:22;;;;;;;13.32;7.85;;;8.30;99.90;;;;;;4989207;28;20058;-48
2021/10/17 00:56:47;;;;;;;12.38;8.35;;;8.30;99.90;;;;;;4973939;28;20027;-51
2021/10/17 00:59:13;;;;;;;12.70;7.75;;;8.30;99.90;;;;;;4974085;28;20102;-54
2021/10/17 01:01:39;;;;;;;15.35;8.60;;;8.20;99.90;;;;;;4974109;28;20042;-49
2021/10/17 01:04:05;;;;;;;12.15;8.48;;;8.20;99.90;;;;;;4972803;28;20447;-51
2021/10/17 01:06:30;;;;;;;10.15;8.45;;;8.00;99.90;;;;;;4973611;28;20031;-51
2021/10/17 01:08:56;;;;;;;15.27;8.55;;;8.00;99.90;;;;;;4973817;28;20523;-51
2021/10/17 01:11:22;;;;;;;14.13;8.43;;;8.00;99.90;;;;;;4973565;28;20504;-51
2021/10/17 01:13:48;;;;;;;15.23;7.97;;;8.00;99.90;;;;;;4972888;28;20027;-52
2021/10/17 01:16:14;;;;;;;14.90;7.88;;;8.00;99.90;;;;;;4973383;28;20038;-48
2021/10/17 01:18:39;;;;;;;10.30;7.78;;;7.90;99.90;;;;;;4972318;28;20023;-51
2021/10/17 01:21:05;;;;;;;13.85;8.82;;;8.00;99.90;;;;;;4973629;28;20227;-50
2021/10/17 01:23:30;;;;;;;15.05;7.60;;;8.00;99.90;;;;;;4974313;28;20108;-49
2021/10/17 01:25:56;;;;;;;16.33;9.40;;;8.00;99.90;;;;;;4974766;28;20039;-52
2021/10/17 01:28:22;;;;;;;14.02;8.15;;;8.00;99.90;;;;;;4972081;28;20113;-52
2021/10/17 01:30:49;;;;;;;12.93;7.88;;;8.00;99.90;;;;;;4973810;28;20033;-50
2021/10/17 01:33:14;;;;;;;17.95;9.93;;;7.90;99.90;;;;;;4973546;28;20023;-52
2021/10/17 01:35:40;;;;;;;13.45;8.38;;;7.90;99.90;;;;;;4973485;28;20023;-51
2021/10/17 01:38:07;;;;;;;14.55;8.35;;;7.90;99.90;;;;;;4973179;28;20114;-51
2021/10/17 01:40:33;;;;;;;14.55;8.68;;;8.00;99.90;;;;;;4973501;28;20023;-51
2021/10/17 01:42:58;;;;;;;17.95;8.55;;;8.00;99.90;;;;;;4973309;28;20203;-55
2021/10/17 01:45:24;;;;;;;16.50;9.32;;;8.00;99.90;;;;;;4973211;28;20026;-52
2021/10/17 01:47:52;;;;;;;16.05;9.15;;;7.90;99.90;;;;;;4972786;28;20026;-52
2021/10/17 01:50:18;;;;;;;12.65;8.07;;;8.00;99.90;;;;;;4973219;28;20395;-50
2021/10/17 01:52:44;;;;;;;18.98;8.50;;;8.00;99.90;;;;;;4973165;28;20061;-51
2021/10/17 01:55:10;;;;;;;19.20;8.98;;;7.90;99.90;;;;;;4973278;28;20027;-55
2021/10/17 01:57:36;;;;;;;16.75;9.00;;;8.00;99.90;;;;;;4972716;28;20030;-50
2021/10/17 02:00:04;;;;;;;16.10;9.10;;;8.00;99.90;;;;;;4973190;28;20030;-50
2021/10/17 02:02:30;;;;;;;16.02;7.97;;;8.00;99.90;;;;;;4972874;28;20031;-51
2021/10/17 02:04:55;;;;;;;14.20;8.68;;;8.00;99.90;;;;;;4972967;28;20500;-55
2021/10/17 02:07:21;;;;;;;12.50;8.10;;;7.90;99.90;;;;;;4972243;28;20038;-53
2021/10/17 02:09:46;;;;;;;17.27;9.07;;;7.90;99.90;;;;;;4972535;28;20661;-49
2021/10/17 02:12:12;;;;;;;15.35;8.50;;;7.90;99.90;;;;;;4972666;28;20102;-51
2021/10/17 02:14:37;;;;;;;15.93;9.15;;;7.90;99.90;;;;;;4970742;28;20492;-53
2021/10/17 02:17:05;;;;;;;16.92;8.40;;;7.90;99.90;;;;;;4972332;28;20027;-50
2021/10/17 02:19:31;;;;;;;12.63;7.40;;;7.80;99.90;;;;;;4972525;28;20045;-50
2021/10/17 02:21:56;;;;;;;13.05;8.68;;;7.80;99.90;;;;;;4971737;28;20030;-50
2021/10/17 02:24:22;;;;;;;13.05;7.53;;;7.70;99.90;;;;;;4972546;28;20037;-54
2021/10/17 02:26:47;;;;;;;18.83;7.97;;;7.60;99.90;;;;;;4972215;28;20030;-54
2021/10/17 02:29:13;;;;;;;13.90;7.70;;;7.60;99.90;;;;;;4972426;28;20035;-49
2021/10/17 02:31:39;;;;;;;11.55;7.80;;;7.60;99.90;;;;;;4972572;28;20653;-51
2021/10/17 02:34:04;;;;;;;15.73;8.13;;;7.60;99.90;;;;;;4972511;28;20078;-50
2021/10/17 02:36:30;;;;;;;21.67;9.23;;;7.70;99.90;;;;;;4972161;28;20027;-55
2021/10/17 02:38:56;;;;;;;16.25;8.65;;;7.60;99.90;;;;;;4972326;28;20085;-49
2021/10/17 02:41:21;;;;;;;19.92;8.23;;;7.70;99.90;;;;;;4972363;28;20022;-54
2021/10/17 02:43:47;;;;;;;23.73;8.18;;;7.70;99.90;;;;;;4971043;28;20031;-51
2021/10/17 02:46:13;;;;;;;14.93;7.93;;;7.70;99.90;;;;;;4972087;28;20027;-51
2021/10/17 02:48:38;;;;;;;12.00;7.25;;;7.80;99.90;;;;;;4972459;28;20029;-51
2021/10/17 02:51:04;;;;;;;14.93;8.35;;;7.80;99.90;;;;;;4972428;28;20022;-57
2021/10/17 02:53:30;;;;;;;14.77;7.95;;;7.80;99.90;;;;;;4972462;28;20055;-50
2021/10/17 02:55:55;;;;;;;18.00;7.65;;;7.90;99.90;;;;;;4972367;28;20429;-51
2021/10/17 02:58:20;;;;;;;13.82;7.95;;;8.00;99.90;;;;;;4971895;28;20027;-52
2021/10/17 03:00:46;;;;;;;17.75;8.82;;;8.00;99.90;;;;;;4972022;28;20034;-52
2021/10/17 03:03:12;;;;;;;13.00;7.40;;;8.00;99.90;;;;;;4970745;28;20035;-52
2021/10/17 03:05:37;;;;;;;15.13;8.63;;;7.90;99.90;;;;;;4971987;28;20119;-52
2021/10/17 03:08:03;;;;;;;10.95;7.20;;;7.90;99.90;;;;;;4970120;28;20408;-54
2021/10/17 03:10:28;;;;;;;9.73;6.68;;;7.90;99.90;;;;;;4971902;28;20027;-56
2021/10/17 03:12:54;;;;;;;10.57;6.70;;;7.90;99.90;;;;;;4971907;28;20078;-51
2021/10/17 03:15:19;;;;;;;16.40;7.35;;;7.90;99.90;;;;;;4970119;28;20023;-53
2021/10/17 03:17:46;;;;;;;13.35;7.35;;;8.00;99.90;;;;;;4971421;28;20102;-53
2021/10/17 03:20:12;;;;;;;13.30;7.03;;;8.00;99.90;;;;;;4971869;28;20031;-49
2021/10/17 03:22:38;;;;;;;8.55;6.35;;;8.00;99.90;;;;;;4970579;28;20069;-51
2021/10/17 03:25:04;;;;;;;15.75;7.07;;;8.00;99.90;;;;;;4971995;28;20408;-48
2021/10/17 03:27:29;;;;;;;13.85;6.75;;;8.10;99.90;;;;;;4971647;28;20039;-50
2021/10/17 03:29:55;;;;;;;12.07;6.80;;;8.10;99.90;;;;;;4970721;28;20038;-53
2021/10/17 03:32:20;;;;;;;20.25;7.72;;;8.10;99.90;;;;;;4971740;28;20027;-51
2021/10/17 03:34:46;;;;;;;8.85;6.45;;;8.10;99.90;;;;;;4974815;28;20424;-52
2021/10/17 03:37:12;;;;;;;10.63;6.85;;;8.10;99.90;;;;;;4975294;28;20042;-53
2021/10/17 03:39:37;;;;;;;8.13;6.60;;;8.20;99.90;;;;;;4975353;28;20050;-49
2021/10/17 03:42:03;;;;;;;9.07;6.65;;;8.10;99.90;;;;;;4975422;28;20038;-52
2021/10/17 03:44:28;;;;;;;15.18;7.07;;;8.10;99.90;;;;;;4975368;28;20520;-51
2021/10/17 03:46:54;;;;;;;11.57;7.22;;;8.20;99.90;;;;;;4975103;28;20105;-47
2021/10/17 03:49:19;;;;;;;12.55;7.57;;;8.40;99.90;;;;;;4975828;28;20496;-48
2021/10/17 03:51:45;;;;;;;9.10;6.72;;;8.50;99.90;;;;;;4974198;28;20027;-48
2021/10/17 03:54:11;;;;;;;11.15;7.10;;;8.30;99.90;;;;;;4975528;28;20288;-49
2021/10/17 03:56:36;;;;;;;10.02;6.55;;;8.30;99.90;;;;;;4975778;28;20147;-47
2021/10/17 03:59:02;;;;;;;14.90;6.68;;;8.20;99.90;;;;;;4975339;28;20102;-52
2021/10/17 04:01:27;;;;;;;8.48;6.90;;;8.20;99.90;;;;;;4975233;28;20050;-49
2021/10/17 04:03:53;;;;;;;10.95;6.75;;;8.20;99.90;;;;;;4975608;28;20054;-48
2021/10/17 04:06:18;;;;;;;10.52;6.78;;;8.10;99.90;;;;;;4974986;28;20026;-51
2021/10/17 04:08:44;;;;;;;12.68;7.20;;;8.00;99.90;;;;;;4974814;28;20081;-49
2021/10/17 04:11:10;;;;;;;12.73;9.07;;;8.00;99.90;;;;;;4974917;28;20035;-49
2021/10/17 04:13:35;;;;;;;15.88;9.32;;;8.10;99.90;;;;;;4973812;28;20155;-48
2021/10/17 04:16:01;;;;;;;16.58;8.35;;;8.20;99.90;;;;;;4975439;28;20097;-51
2021/10/17 04:18:27;;;;;;;10.75;7.63;;;8.20;99.90;;;;;;4974503;28;20030;-47
2021/10/17 04:20:52;;;;;;;11.52;7.60;;;8.10;99.90;;;;;;4974926;28;20067;-49
2021/10/17 04:23:18;;;;;;;14.40;7.07;;;8.00;99.90;;;;;;4974630;28;20030;-52
2021/10/17 04:25:43;;;;;;;16.15;8.48;;;8.00;99.90;;;;;;4974599;28;20035;-53
2021/10/17 04:28:09;;;;;;;13.48;7.55;;;8.00;99.90;;;;;;4974272;28;20035;-50
2021/10/17 04:30:34;;;;;;;12.20;7.60;;;7.90;99.90;;;;;;4974510;28;20497;-52
2021/10/17 04:33:00;;;;;;;11.25;7.53;;;7.90;99.90;;;;;;4974517;28;20126;-49
2021/10/17 04:35:26;;;;;;;13.25;7.40;;;7.80;99.90;;;;;;4974425;28;20026;-50
2021/10/17 04:37:51;;;;;;;11.70;7.00;;;8.00;99.90;;;;;;4974020;28;20045;-48
2021/10/17 04:40:17;;;;;;;14.40;7.18;;;8.00;99.90;;;;;;4974330;28;20023;-50
2021/10/17 04:42:43;;;;;;;12.35;7.40;;;8.00;99.90;;;;;;4974184;28;20034;-51
2021/10/17 04:45:10;;;;;;;12.05;6.78;;;7.90;99.90;;;;;;4973618;28;20058;-50
2021/10/17 04:47:35;;;;;;;16.13;7.05;;;8.00;99.90;;;;;;4973968;28;20054;-48
2021/10/17 04:50:01;;;;;;;13.48;6.72;;;8.00;99.90;;;;;;4974785;28;20066;-50
2021/10/17 04:52:27;;;;;;;17.10;7.75;;;8.00;99.90;;;;;;4974680;28;20078;-50
2021/10/17 04:54:52;;;;;;;14.00;7.03;;;8.00;99.90;;;;;;4974111;28;20023;-47
2021/10/17 04:57:18;;;;;;;13.35;6.95;;;8.00;99.90;;;;;;4973540;28;20070;-51
2021/10/17 04:59:43;;;;;;;11.90;7.55;;;7.90;99.90;;;;;;4974134;28;20400;-51
2021/10/17 05:02:09;;;;;;;10.98;7.70;;;8.10;99.90;;;;;;4974003;28;20027;-49
2021/10/17 05:04:38;;;;;;;12.20;7.53;;;8.10;99.90;;;;;;4974092;28;20373;-50
2021/10/17 05:07:04;;;;;;;10.10;6.35;;;8.20;99.90;;;;;;4973546;28;20461;-52
2021/10/17 05:09:30;;;;;;;10.57;7.38;;;8.10;99.90;;;;;;4973909;28;20027;-50
2021/10/17 05:11:56;;;;;;;11.45;6.53;;;8.10;99.90;;;;;;4973768;28;20041;-52
2021/10/17 05:14:21;;;;;;;12.27;6.63;;;8.10;99.90;;;;;;4973741;28;20098;-52
2021/10/17 05:16:47;;;;;;;11.80;6.97;;;8.10;99.90;;;;;;4973114;28;20027;-48
2021/10/17 05:19:12;;;;;;;18.27;7.30;;;8.10;99.90;;;;;;4973767;28;20054;-51
2021/10/17 05:21:38;;;;;;;8.77;5.72;;;8.10;99.90;;;;;;4973687;28;20054;-50
2021/10/17 05:24:04;;;;;;;14.40;6.72;;;8.10;99.90;;;;;;4973707;28;20042;-48
2021/10/17 05:26:29;;;;;;;10.90;6.47;;;8.20;99.90;;;;;;4973296;28;20030;-49
2021/10/17 05:28:55;;;;;;;11.50;6.82;;;8.10;99.90;;;;;;4973364;28;20107;-49
2021/10/17 05:31:20;;;;;;;12.57;7.22;;;8.00;99.90;;;;;;4973499;28;20029;-51
2021/10/17 05:33:46;;;;;;;12.75;7.90;;;8.00;99.90;;;;;;4973459;28;20134;-53
2021/10/17 05:36:12;;;;;;;12.68;6.22;;;8.00;99.90;;;;;;4973364;28;20034;-51
2021/10/17 05:38:41;;;;;;;10.15;6.03;;;8.00;99.90;;;;;;4973327;28;20030;-48
2021/10/17 05:41:07;;;;;;;13.82;6.80;;;8.10;99.90;;;;;;4973359;28;20100;-50
2021/10/17 05:43:33;;;;;;;8.63;6.07;;;8.10;99.90;;;;;;4973355;28;20026;-52
2021/10/17 05:45:59;;;;;;;15.65;6.28;;;8.10;99.90;;;;;;4973291;28;20061;-51
2021/10/17 05:48:24;;;;;;;13.10;6.28;;;8.20;99.90;;;;;;4972922;28;20035;-53
2021/10/17 05:50:50;;;;;;;14.23;6.82;;;8.20;99.90;;;;;;4973138;28;20027;-48
2021/10/17 05:53:15;;;;;;;11.35;6.18;;;8.30;99.90;;;;;;4973152;28;20027;-50
2021/10/17 05:55:41;;;;;;;9.88;6.68;;;8.20;99.90;;;;;;4973101;28;20026;-54
2021/10/17 05:58:07;;;;;;;9.52;7.38;;;8.10;99.90;;;;;;4973414;28;20027;-49
2021/10/17 06:00:32;;;;;;;12.57;7.07;;;8.20;99.90;;;;;;4973262;28;20520;-47
2021/10/17 06:02:58;;;;;;;16.52;7.45;;;8.00;99.90;;;;;;4973050;28;20103;-48
2021/10/17 06:05:23;;;;;;;12.70;7.10;;;8.00;99.90;;;;;;4972863;28;20027;-49
2021/10/17 06:07:49;;;;;;;13.38;6.75;;;8.00;99.90;;;;;;4972674;28;20409;-53
2021/10/17 06:10:14;;;;;;;17.73;6.70;;;8.00;99.90;;;;;;4972742;28;20516;-48
2021/10/17 06:12:41;;;;;;;9.63;6.95;;;8.00;99.90;;;;;;4971570;28;20398;-47
2021/10/17 06:15:08;;;;;;;11.75;7.40;;;8.00;99.90;;;;;;4971125;28;20023;-49
2021/10/17 06:17:34;;;;;;;12.10;7.95;;;8.20;99.90;;;;;;4972479;28;20503;-47
2021/10/17 06:20:01;;;;;;;16.08;8.73;;;8.30;99.90;;;;;;4971429;28;20027;-47
2021/10/17 06:22:27;;;;;;;9.98;7.45;;;8.30;99.90;;;;;;4972692;28;20377;-49
2021/10/17 06:24:52;;;;;;;12.75;7.20;;;8.20;99.90;;;;;;4971326;28;20046;-52
2021/10/17 06:27:18;;;;;;;11.30;7.43;;;8.10;99.90;;;;;;4972182;28;20388;-49
2021/10/17 06:29:44;;;;;;;12.73;7.65;;;8.10;99.90;;;;;;4972471;28;20081;-50
2021/10/17 06:32:10;;;;;;;12.77;7.78;;;8.00;99.90;;;;;;4972441;28;20443;-54
2021/10/17 06:34:35;;;;;;;11.25;7.35;;;8.00;99.90;;;;;;4972154;28;20037;-54
2021/10/17 06:37:01;;;;;;;11.48;7.85;;;8.00;99.90;;;;;;4971938;28;20483;-48
2021/10/17 06:39:26;;;;;;;8.82;7.00;;;8.10;99.90;;;;;;4972145;28;20073;-50
2021/10/17 06:41:52;;;;;;;11.70;7.68;;;8.10;99.90;;;;;;4972131;28;20037;-52
2021/10/17 06:44:21;;;;;;;10.07;7.60;;;8.10;99.90;;;;;;4972198;28;20434;-53
2021/10/17 06:46:48;;;;;;;12.90;7.45;;;8.10;99.90;;;;;;4971948;28;20447;-50
2021/10/17 06:49:13;;;;;;;11.43;7.80;;;8.10;99.90;;;;;;4972119;28;20023;-48
2021/10/17 06:51:39;;;;;;;9.15;7.07;;;8.10;99.90;;;;;;4972202;28;20080;-49
2021/10/17 06:54:04;;;;;;;13.13;7.13;;;8.20;99.90;;;;;;4977956;28;20026;-50
2021/10/17 06:56:30;;;;;;;12.68;8.05;;;8.30;99.90;;;;;;4978498;28;20038;-51
2021/10/17 06:58:55;;;;;;;9.18;7.80;;;8.20;99.90;;;;;;4971896;28;20488;-48
2021/10/17 07:01:21;;;;;;;12.55;8.30;;;8.20;99.90;;;;;;4971995;28;20085;-49
2021/10/17 07:03:46;;;;;;;9.32;7.30;;;8.30;99.90;;;;;;4971927;28;20492;-50
2021/10/17 07:06:13;;;;;;;10.30;7.88;;;8.40;99.90;;;;;;4971441;28;20049;-50
2021/10/17 07:08:38;;;;;;;13.85;8.10;;;8.40;99.90;;;;;;4972161;28;20538;-51
2021/10/17 07:11:04;;;;;;;15.18;8.35;;;8.40;99.90;;;;;;4973794;28;20035;-51
2021/10/17 07:13:29;;;;;;;12.60;8.93;;;8.50;99.90;;;;;;4972814;28;20034;-50
2021/10/17 07:15:55;;;;;;;13.00;8.68;;;8.50;99.90;;;;;;4982502;28;20420;-50
2021/10/17 07:18:21;;;;;;;12.35;8.43;;;8.40;99.90;;;;;;4982654;28;20534;-54
2021/10/17 07:20:46;;;;;;;14.15;8.98;;;8.50;99.90;;;;;;4978857;28;20030;-53
2021/10/17 07:23:12;;;;;;;14.00;9.05;;;8.50;99.90;;;;;;4989249;28;20077;-51
2021/10/17 07:25:37;;;;;;;11.80;7.90;;;8.50;99.90;;;;;;4976232;28;20429;-48
2021/10/17 07:28:03;;;;;;;13.65;8.32;;;8.60;99.90;;;;;;4971504;28;20035;-48
2021/10/17 07:30:28;;;;;;;11.45;8.23;;;8.60;99.90;;;;;;4971527;28;20071;-55
2021/10/17 07:32:54;;;;;;;16.63;8.68;;;8.80;99.90;;;;;;4971713;28;20493;-51
2021/10/17 07:35:19;;;;;;;9.88;8.27;;;8.90;99.90;;;;;;4971591;28;20081;-49
2021/10/17 07:37:45;;;;;;;12.35;8.07;;;8.90;99.90;;;;;;4971298;28;20038;-48
2021/10/17 07:40:11;;;;;;;10.18;8.82;;;9.00;99.90;;;;;;4971543;28;20074;-52
2021/10/17 07:42:37;;;;;;;47.92;29.90;;;9.10;99.90;;;;;;4971714;28;20026;-50
2021/10/17 07:45:03;;;;;;;47.47;29.63;;;9.00;99.90;;;;;;4971472;28;20037;-53
2021/10/17 07:47:35;;;;;;;12.48;9.90;;;9.00;99.90;;;;;;4971239;28;20058;-53
2021/10/17 07:50:01;;;;;;;12.05;8.60;;;8.90;99.90;;;;;;4971398;28;20082;-52
2021/10/17 07:52:27;;;;;;;11.25;8.65;;;8.90;99.90;;;;;;4971862;28;20380;-52
2021/10/17 07:54:52;;;;;;;12.55;8.13;;;8.90;99.90;;;;;;4971517;28;20023;-48
2021/10/17 07:57:18;;;;;;;11.90;8.73;;;8.90;99.90;;;;;;4971140;28;20098;-49
2021/10/17 07:59:43;;;;;;;11.85;8.15;;;9.00;99.90;;;;;;4971491;28;20058;-50
2021/10/17 08:02:08;;;;;;;15.50;9.15;;;9.00;99.90;;;;;;4969883;28;20126;-54
2021/10/17 08:04:37;;;;;;;15.07;8.82;;;9.10;99.90;;;;;;4971115;28;20026;-48
2021/10/17 08:07:03;;;;;;;14.93;10.45;;;9.10;99.90;;;;;;4970644;28;20035;-54
2021/10/17 08:09:29;;;;;;;13.80;8.45;;;9.20;99.90;;;;;;4971323;28;20027;-53
2021/10/17 08:11:55;;;;;;;10.95;9.60;;;9.30;99.90;;;;;;4971508;28;20070;-53
2021/10/17 08:14:20;;;;;;;15.32;10.25;;;9.40;99.90;;;;;;4971384;28;20019;-50
2021/10/17 08:16:46;;;;;;;14.48;9.38;;;9.50;99.90;;;;;;4970905;28;20484;-49
2021/10/17 08:19:11;;;;;;;15.15;11.15;;;9.50;99.90;;;;;;4971726;28;20027;-52
2021/10/17 08:21:37;;;;;;;15.77;10.65;;;9.60;99.90;;;;;;4972652;28;20023;-53
2021/10/17 08:24:02;;;;;;;17.27;10.57;;;9.60;99.90;;;;;;4973340;28;20019;-51
2021/10/17 08:26:28;;;;;;;19.20;12.07;;;9.60;99.90;;;;;;4972910;28;20031;-50
2021/10/17 08:28:54;;;;;;;19.42;11.63;;;9.70;99.90;;;;;;4974616;28;20034;-49
2021/10/17 08:31:19;;;;;;;18.40;12.27;;;9.80;99.90;;;;;;4974347;28;20023;-52
2021/10/17 08:33:45;;;;;;;18.92;13.90;;;9.90;99.90;;;;;;4973233;28;20074;-51
2021/10/17 08:36:11;;;;;;;18.02;13.73;;;9.90;99.90;;;;;;4974106;28;20111;-49
2021/10/17 08:38:36;;;;;;;29.30;17.60;;;10.00;99.90;;;;;;4973312;28;20034;-51
2021/10/17 08:41:02;;;;;;;24.35;16.77;;;10.10;99.90;;;;;;4970990;28;20031;-50
2021/10/17 08:43:27;;;;;;;26.73;16.98;;;10.20;99.90;;;;;;4972709;28;20117;-50
2021/10/17 08:45:53;;;;;;;26.63;17.70;;;10.20;99.90;;;;;;4988607;28;20025;-48
2021/10/17 08:48:19;;;;;;;31.25;19.85;;;10.30;99.90;;;;;;4973848;28;20035;-48
2021/10/17 08:50:45;;;;;;;24.95;16.40;;;10.30;99.90;;;;;;4974814;28;20468;-51
2021/10/17 08:53:10;;;;;;;25.50;18.20;;;10.40;99.90;;;;;;4973737;28;20041;-53
2021/10/17 08:55:36;;;;;;;48.03;30.35;;;10.50;99.90;;;;;;4973291;28;20435;-53
2021/10/17 08:58:01;;;;;;;66.40;41.78;;;10.70;99.90;;;;;;4971973;28;20026;-56
2021/10/17 09:00:32;;;;;;;38.80;26.15;;;10.80;99.90;;;;;;4973974;28;20535;-50
2021/10/17 09:02:59;;;;;;;22.08;17.15;;;11.10;99.90;;;;;;4973936;28;20037;-49
2021/10/17 09:05:44;;;;;;;22.60;15.45;;;11.50;99.90;;;;;;4973806;28;20118;-50
2021/10/17 09:08:14;;;;;;;22.35;15.73;;;11.80;99.90;;;;;;4973388;28;20043;-52
2021/10/17 09:10:40;;;;;;;21.85;15.45;;;12.20;99.90;;;;;;4972343;28;20031;-51
2021/10/17 09:13:09;;;;;;;23.48;14.57;;;13.10;99.90;;;;;;4973752;28;20053;-53
2021/10/17 09:15:35;;;;;;;17.45;13.55;;;14.00;99.90;;;;;;4973565;28;20054;-49
2021/10/17 09:18:16;;;;;;;18.35;12.45;;;14.60;99.90;;;;;;4973596;28;20061;-52
2021/10/17 09:20:47;;;;;;;19.73;13.90;;;14.50;99.90;;;;;;4973746;28;20026;-49
2021/10/17 09:23:16;;;;;;;17.25;14.32;;;14.40;99.90;;;;;;4973805;28;20026;-52
2021/10/17 09:25:42;;;;;;;19.88;14.32;;;13.90;99.90;;;;;;4973263;28;20131;-51
2021/10/17 09:28:21;;;;;;;20.40;15.02;;;13.50;99.90;;;;;;4971731;28;20508;-53
2021/10/17 09:31:00;;;;;;;17.35;14.18;;;13.20;99.90;;;;;;4973022;28;20055;-52
2021/10/17 09:33:25;;;;;;;16.70;13.30;;;13.10;99.90;;;;;;4973326;28;20110;-51
2021/10/17 09:35:51;;;;;;;18.23;13.63;;;13.00;99.90;;;;;;4973132;28;20105;-53
2021/10/17 09:38:19;;;;;;;16.50;13.18;;;13.00;99.90;;;;;;4973120;28;20016;-50
2021/10/17 09:40:46;;;;;;;22.52;14.82;;;13.20;99.90;;;;;;4973363;28;20106;-52
2021/10/17 09:43:22;;;;;;;18.77;13.40;;;13.40;99.90;;;;;;4973221;28;20023;-50
2021/10/17 09:45:48;;;;;;;18.33;13.43;;;13.30;99.90;;;;;;4974000;28;20511;-51
2021/10/17 09:48:44;;;;;;;15.48;12.23;;;13.10;99.90;;;;;;4972267;28;20077;-50
2021/10/17 09:51:15;;;;;;;15.68;12.48;;;13.10;99.90;;;;;;4964482;28;20054;-51
2021/10/17 09:53:52;;;;;;;19.92;13.75;;;12.90;99.90;;;;;;4974098;28;20538;-54
2021/10/17 09:56:38;;;;;;;14.55;12.38;;;12.80;99.90;;;;;;4972648;28;20027;-50
2021/10/17 09:59:12;;;;;;;18.77;12.32;;;12.60;99.90;;;;;;4970315;28;20093;-53
2021/10/17 10:01:40;;;;;;;17.40;11.27;;;12.50;99.90;;;;;;4977489;28;20118;-51
2021/10/17 10:04:08;;;;;;;18.80;12.10;;;12.60;99.90;;;;;;4972594;28;20022;-50
2021/10/17 10:06:34;;;;;;;19.42;11.05;;;12.60;99.90;;;;;;4972090;28;20023;-49
2021/10/17 10:09:08;;;;;;;19.88;11.63;;;12.60;99.90;;;;;;4980626;28;20045;-51
2021/10/17 10:11:36;;;;;;;16.55;11.52;;;12.60;99.90;;;;;;4984018;28;20030;-49
2021/10/17 10:14:07;;;;;;;15.07;11.27;;;12.60;99.90;;;;;;4990134;28;20023;-51
2021/10/17 10:16:34;;;;;;;14.52;9.77;;;12.60;99.90;;;;;;4986186;28;20029;-51
2021/10/17 10:19:02;;;;;;;19.13;11.13;;;12.90;99.90;;;;;;4972586;28;20031;-51
2021/10/17 10:21:29;;;;;;;14.07;11.15;;;13.10;99.90;;;;;;4984868;28;20031;-56
2021/10/17 10:24:00;;;;;;;20.35;11.18;;;13.00;99.90;;;;;;4983083;28;20503;-51
2021/10/17 10:26:27;;;;;;;20.35;12.70;;;12.90;99.90;;;;;;4990119;28;20431;-47
2021/10/17 10:28:55;;;;;;;17.30;11.43;;;12.80;99.90;;;;;;4991362;28;20030;-53
2021/10/17 10:31:43;;;;;;;18.40;12.13;;;12.70;99.90;;;;;;4991913;28;20038;-47
2021/10/17 10:34:32;;;;;;;19.55;11.55;;;12.70;99.90;;;;;;4987331;28;20042;-52
2021/10/17 10:37:11;;;;;;;19.08;11.40;;;12.60;99.90;;;;;;4965605;28;20042;-52
2021/10/17 10:39:36;;;;;;;26.58;13.02;;;12.60;99.90;;;;;;4971761;28;20365;-53
2021/10/17 10:42:15;;;;;;;15.82;11.85;;;12.70;99.90;;;;;;4971882;28;20035;-50
2021/10/17 10:44:41;;;;;;;13.70;10.07;;;12.80;99.90;;;;;;4970200;28;20038;-49
2021/10/17 10:47:27;;;;;;;17.52;10.88;;;12.90;99.90;;;;;;4971699;28;20048;-53
2021/10/17 10:49:54;;;;;;;15.98;11.02;;;12.90;99.90;;;;;;4971853;28;20102;-50
2021/10/17 10:52:28;;;;;;;17.05;11.60;;;13.00;99.90;;;;;;4972020;28;20116;-54
2021/10/17 10:54:55;;;;;;;17.35;11.95;;;13.10;99.90;;;;;;4971932;28;20027;-48
2021/10/17 10:57:24;;;;;;;22.08;12.63;;;13.50;99.90;;;;;;4971220;28;20031;-48
2021/10/17 11:00:16;;;;;;;21.50;11.50;;;13.60;99.90;;;;;;4970148;28;20031;-48
2021/10/17 11:03:16;;;;;;;15.88;10.27;;;13.60;99.90;;;;;;4974761;28;20038;-52
2021/10/17 11:06:06;;;;;;;17.27;9.68;;;13.50;99.90;;;;;;4976292;28;20396;-52
2021/10/17 11:08:37;;;;;;;17.50;9.73;;;13.60;99.90;;;;;;4971630;28;20416;-52
2021/10/17 11:11:03;;;;;;;16.90;9.57;;;13.80;99.90;;;;;;4977271;28;20054;-50
2021/10/17 11:13:37;;;;;;;13.05;8.48;;;13.90;99.90;;;;;;4969839;28;20496;-51
2021/10/17 11:16:06;;;;;;;13.95;8.05;;;13.80;99.90;;;;;;4971303;28;20038;-50
2021/10/17 11:18:38;;;;;;;11.63;7.30;;;13.80;99.90;;;;;;4990511;28;20090;-52
2021/10/17 11:21:06;;;;;;;10.55;6.40;;;13.60;99.90;;;;;;4990349;28;20113;-49
2021/10/17 11:23:34;;;;;;;8.48;6.80;;;13.60;99.90;;;;;;4973747;28;20034;-55
2021/10/17 11:26:07;;;;;;;10.13;6.18;;;13.50;99.90;;;;;;4973511;28;20043;-53
2021/10/17 11:28:34;;;;;;;9.52;5.28;;;13.50;99.90;;;;;;4970800;28;20488;-53
2021/10/17 11:31:01;;;;;;;10.38;6.10;;;13.60;99.90;;;;;;4974886;28;20057;-50
2021/10/17 11:33:26;;;;;;;9.00;6.10;;;13.60;99.90;;;;;;4976924;28;20106;-50
2021/10/17 11:35:55;;;;;;;12.00;6.10;;;13.60;99.90;;;;;;4971357;28;20111;-49
2021/10/17 11:38:21;;;;;;;13.27;6.30;;;13.70;99.90;;;;;;4973974;28;20092;-51
2021/10/17 11:40:46;;;;;;;10.25;6.10;;;13.70;99.90;;;;;;4987967;28;20499;-55
2021/10/17 11:43:13;;;;;;;9.60;6.38;;;13.70;99.90;;;;;;4976535;28;20051;-49
2021/10/17 11:45:42;;;;;;;7.47;5.47;;;13.80;99.90;;;;;;4951717;28;20034;-52
2021/10/17 11:48:11;;;;;;;7.10;5.60;;;13.80;99.90;;;;;;4968517;28;20476;-52
2021/10/17 11:50:40;;;;;;;11.75;5.47;;;13.90;99.90;;;;;;4973758;28;20440;-51
2021/10/17 11:53:08;;;;;;;10.90;4.88;;;13.80;99.90;;;;;;4976694;28;20034;-54
2021/10/17 11:55:33;;;;;;;8.93;4.80;;;13.80;99.90;;;;;;4972695;28;20145;-52
2021/10/17 11:58:00;;;;;;;14.48;5.55;;;13.80;99.90;;;;;;4969949;28;20103;-53
2021/10/17 12:00:27;;;;;;;10.13;5.07;;;13.70;99.90;;;;;;4962412;28;20106;-53
2021/10/17 12:02:54;;;;;;;9.75;4.65;;;13.60;99.90;;;;;;4980648;28;20027;-53
2021/10/17 12:05:23;;;;;;;10.35;4.55;;;13.60;99.90;;;;;;4955356;28;20110;-54
2021/10/17 12:07:49;;;;;;;8.05;4.50;;;13.60;99.90;;;;;;4971042;28;20042;-54
2021/10/17 12:10:15;;;;;;;13.30;4.57;;;13.70;99.90;;;;;;4974618;28;20349;-52
2021/10/17 12:12:42;;;;;;;9.77;4.22;;;13.70;99.90;;;;;;4974661;28;20023;-52
2021/10/17 12:15:10;;;;;;;6.82;4.40;;;13.80;99.90;;;;;;4974503;28;20030;-52
2021/10/17 12:17:35;;;;;;;6.13;4.25;;;13.70;99.90;;;;;;4980660;28;20038;-49
2021/10/17 12:20:10;;;;;;;9.90;4.63;;;13.70;99.90;;;;;;4990765;28;20034;-53
2021/10/17 12:22:43;;;;;;;37.90;21.08;;;13.70;99.90;;;;;;4992438;28;20407;-59
2021/10/17 12:25:09;;;;;;;9.25;5.25;;;13.80;99.70;;;;;;4992020;28;20395;-50
2021/10/17 12:27:38;;;;;;;7.15;4.50;;;13.80;99.90;;;;;;4993657;28;20474;-53
2021/10/17 12:30:14;;;;;;;10.02;4.10;;;13.80;99.90;;;;;;4991644;28;20238;-49
2021/10/17 12:32:50;;;;;;;9.00;4.82;;;13.80;99.90;;;;;;4978724;28;20042;-54
2021/10/17 12:35:23;;;;;;;8.27;3.80;;;13.70;99.90;;;;;;4962188;28;20027;-52
2021/10/17 12:37:50;;;;;;;11.07;4.13;;;13.70;99.90;;;;;;4974445;28;20554;-51
2021/10/17 12:40:16;;;;;;;6.10;3.78;;;13.70;99.90;;;;;;4974263;28;20113;-53
2021/10/17 12:42:57;;;;;;;7.50;4.45;;;13.70;99.90;;;;;;4986253;28;20038;-51